Arklow Mill — EIJD9 — position and weather

sailwx.info

Track history (hours):
 
Tides and Currents Weather Stations Pressure Air Temp Water Temp Dewpoint Dewpoint Depression Visibility Wind Speed Wind Dir Waves Ship Positions

Arklow Mill

Last reported at 2016-Jun-28 03:31 UTC. Time now 2016-Jul-01 06:27 UTC.
Position N 45°35' W 001°27'.

Length 137 m; draft 8.4 m.

Type: Ship. MMSI: 250002022.

Date/timePositionNaut miles runAvg speedWind from/ knotsBaromVisibWave heightAir tempDewpointWater temp
2016-Jun-28 03:31N 45°35' W 001°27'  
2016-Jun-24 21:31N 45°35' W 001°27'0 0.0
2016-Jun-24 18:13N 45°35' W 001°27'0 0.0
2016-Jun-24 17:28N 45°35' W 001°27'0 0.0
2016-Jun-24 16:31N 45°35' W 001°27'0 0.0
2016-Jun-23 13:26N 45°35' W 001°27'0 0.0
2016-Jun-23 09:07N 45°35' W 001°27'0 0.0
2016-Jun-23 08:25N 45°35' W 001°27'0 0.0
2016-Jun-23 00:31N 45°35' W 001°27'0 0.0
2016-Jun-22 08:28N 45°35' W 001°27'0 0.0
2016-Jun-22 07:31N 45°35' W 001°27'0 0.1
2016-Jun-22 04:31N 45°35' W 001°27'0 0.0
2016-Jun-21 16:13N 45°35' W 001°27'15 5.1
2016-Jun-21 13:16N 45°22' W 001°36'1311.8
2016-Jun-21 12:13N 45°11' W 001°45'811.5
2016-Jun-21 11:33N 45°04' W 001°49'1111.4
2016-Jun-21 10:33N 44°54' W 001°57'1111.4
2016-Jun-21 09:34N 44°44' W 002°05'1111.2
2016-Jun-21 08:33N 44°34' W 002°12'1111.1
2016-Jun-21 07:34N 44°24' W 002°20'2311.6
2016-Jun-21 05:34N 44°04' W 002°36'1111.3
2016-Jun-21 04:33N 43°55' W 002°44'1111.2
2016-Jun-21 03:33N 43°45' W 002°51'1111.1
2016-Jun-21 02:34N 43°35' W 002°59'1212.1
2016-Jun-21 01:33N 43°24' W 003°06'  
Track history (hours):
 
Tides and Currents Weather Stations Pressure Air Temp Water Temp Dewpoint Dewpoint Depression Visibility Wind Speed Wind Dir Waves Ship Positions

Arklow Mill

Last reported at 2016-Jun-28 03:31 UTC. Time now 2016-Jul-01 06:27 UTC.
Position N 45°35' W 001°27'.

Length 137 m; draft 8.4 m.

Type: Ship. MMSI: 250002022.

Date/timePositionNaut miles runAvg speedWind from/ knotsBaromVisibWave heightAir tempDewpointWater temp
2016-Jun-28 03:31N 45°35' W 001°27'  
2016-Jun-24 21:31N 45°35' W 001°27'0 0.0
2016-Jun-24 18:13N 45°35' W 001°27'0 0.0
2016-Jun-24 17:28N 45°35' W 001°27'0 0.0
2016-Jun-24 16:31N 45°35' W 001°27'0 0.0
2016-Jun-23 13:26N 45°35' W 001°27'0 0.0
2016-Jun-23 09:07N 45°35' W 001°27'0 0.0
2016-Jun-23 08:25N 45°35' W 001°27'0 0.0
2016-Jun-23 00:31N 45°35' W 001°27'0 0.0
2016-Jun-22 08:28N 45°35' W 001°27'0 0.0
2016-Jun-22 07:31N 45°35' W 001°27'0 0.1
2016-Jun-22 04:31N 45°35' W 001°27'0 0.0
2016-Jun-21 16:13N 45°35' W 001°27'15 5.1
2016-Jun-21 13:16N 45°22' W 001°36'1311.8
2016-Jun-21 12:13N 45°11' W 001°45'811.5
2016-Jun-21 11:33N 45°04' W 001°49'1111.4
2016-Jun-21 10:33N 44°54' W 001°57'1111.4
2016-Jun-21 09:34N 44°44' W 002°05'1111.2
2016-Jun-21 08:33N 44°34' W 002°12'1111.1
2016-Jun-21 07:34N 44°24' W 002°20'2311.6
2016-Jun-21 05:34N 44°04' W 002°36'1111.3
2016-Jun-21 04:33N 43°55' W 002°44'1111.2
2016-Jun-21 03:33N 43°45' W 002°51'1111.1
2016-Jun-21 02:34N 43°35' W 002°59'1212.1
2016-Jun-21 01:33N 43°24' W 003°06'  

Dump ship's entire track history